sensor_id;sensor_type;location;lat;lon;timestamp;P1;durP1;ratioP1;P2;durP2;ratioP2
56039;SDS011;43937;41.366;2.072;2024-03-02T00:00:49;11.97;;;4.40;;
56039;SDS011;43937;41.366;2.072;2024-03-02T00:03:16;10.55;;;4.20;;
56039;SDS011;43937;41.366;2.072;2024-03-02T00:05:41;10.93;;;4.27;;
56039;SDS011;43937;41.366;2.072;2024-03-02T00:08:07;16.83;;;5.03;;
56039;SDS011;43937;41.366;2.072;2024-03-02T00:10:37;13.45;;;4.60;;
56039;SDS011;43937;41.366;2.072;2024-03-02T00:13:06;10.03;;;4.43;;
56039;SDS011;43937;41.366;2.072;2024-03-02T00:18:18;9.50;;;4.28;;
56039;SDS011;43937;41.366;2.072;2024-03-02T00:20:50;7.88;;;3.88;;
56039;SDS011;43937;41.366;2.072;2024-03-02T00:23:19;8.73;;;4.25;;
56039;SDS011;43937;41.366;2.072;2024-03-02T00:25:47;8.48;;;4.00;;
56039;SDS011;43937;41.366;2.072;2024-03-02T00:31:13;9.45;;;4.00;;
56039;SDS011;43937;41.366;2.072;2024-03-02T00:33:42;11.27;;;4.35;;
56039;SDS011;43937;41.366;2.072;2024-03-02T00:36:11;9.32;;;3.47;;
56039;SDS011;43937;41.366;2.072;2024-03-02T00:38:47;9.63;;;3.50;;
56039;SDS011;43937;41.366;2.072;2024-03-02T00:41:15;7.00;;;3.30;;
56039;SDS011;43937;41.366;2.072;2024-03-02T00:46:29;4.43;;;2.60;;
56039;SDS011;43937;41.366;2.072;2024-03-02T00:49:03;5.20;;;2.85;;
56039;SDS011;43937;41.366;2.072;2024-03-02T00:51:44;7.07;;;3.25;;
56039;SDS011;43937;41.366;2.072;2024-03-02T00:54:15;10.90;;;3.97;;
56039;SDS011;43937;41.366;2.072;2024-03-02T00:56:44;8.70;;;4.05;;
56039;SDS011;43937;41.366;2.072;2024-03-02T00:59:10;10.00;;;3.97;;
56039;SDS011;43937;41.366;2.072;2024-03-02T01:01:36;9.10;;;3.47;;
56039;SDS011;43937;41.366;2.072;2024-03-02T01:04:01;7.27;;;3.50;;
56039;SDS011;43937;41.366;2.072;2024-03-02T01:06:27;6.43;;;3.10;;
56039;SDS011;43937;41.366;2.072;2024-03-02T01:08:52;8.35;;;3.45;;
56039;SDS011;43937;41.366;2.072;2024-03-02T01:11:18;7.00;;;3.10;;
56039;SDS011;43937;41.366;2.072;2024-03-02T01:13:44;4.53;;;2.73;;
56039;SDS011;43937;41.366;2.072;2024-03-02T01:16:11;7.88;;;3.00;;
56039;SDS011;43937;41.366;2.072;2024-03-02T01:18:36;8.67;;;3.53;;
56039;SDS011;43937;41.366;2.072;2024-03-02T01:21:02;7.20;;;3.50;;
56039;SDS011;43937;41.366;2.072;2024-03-02T01:23:28;7.22;;;3.30;;
56039;SDS011;43937;41.366;2.072;2024-03-02T01:25:53;6.97;;;3.10;;
56039;SDS011;43937;41.366;2.072;2024-03-02T01:28:20;6.27;;;2.93;;
56039;SDS011;43937;41.366;2.072;2024-03-02T01:30:45;5.18;;;2.70;;
56039;SDS011;43937;41.366;2.072;2024-03-02T01:33:11;6.20;;;3.07;;
56039;SDS011;43937;41.366;2.072;2024-03-02T01:35:37;5.67;;;2.80;;
56039;SDS011;43937;41.366;2.072;2024-03-02T01:38:02;10.07;;;2.90;;
56039;SDS011;43937;41.366;2.072;2024-03-02T01:40:28;5.40;;;2.83;;
56039;SDS011;43937;41.366;2.072;2024-03-02T01:42:54;5.03;;;2.57;;
56039;SDS011;43937;41.366;2.072;2024-03-02T01:45:20;6.57;;;2.80;;
56039;SDS011;43937;41.366;2.072;2024-03-02T01:47:46;6.43;;;2.70;;
56039;SDS011;43937;41.366;2.072;2024-03-02T01:50:12;7.68;;;2.75;;
56039;SDS011;43937;41.366;2.072;2024-03-02T01:52:38;6.32;;;2.75;;
56039;SDS011;43937;41.366;2.072;2024-03-02T01:55:04;6.35;;;2.78;;
56039;SDS011;43937;41.366;2.072;2024-03-02T01:57:31;6.35;;;2.60;;
56039;SDS011;43937;41.366;2.072;2024-03-02T01:59:57;6.20;;;2.20;;
56039;SDS011;43937;41.366;2.072;2024-03-02T02:02:23;5.65;;;2.30;;
56039;SDS011;43937;41.366;2.072;2024-03-02T02:04:49;7.20;;;3.00;;
56039;SDS011;43937;41.366;2.072;2024-03-02T02:07:14;6.17;;;2.67;;
56039;SDS011;43937;41.366;2.072;2024-03-02T02:09:41;6.30;;;2.40;;
56039;SDS011;43937;41.366;2.072;2024-03-02T02:12:07;5.83;;;2.17;;
56039;SDS011;43937;41.366;2.072;2024-03-02T02:14:32;4.80;;;2.20;;
56039;SDS011;43937;41.366;2.072;2024-03-02T02:16:58;5.50;;;2.20;;
56039;SDS011;43937;41.366;2.072;2024-03-02T02:19:24;6.47;;;2.55;;
56039;SDS011;43937;41.366;2.072;2024-03-02T02:21:50;7.53;;;2.20;;
56039;SDS011;43937;41.366;2.072;2024-03-02T02:24:15;7.90;;;2.25;;
56039;SDS011;43937;41.366;2.072;2024-03-02T02:26:40;4.73;;;2.10;;
56039;SDS011;43937;41.366;2.072;2024-03-02T02:29:06;5.60;;;2.40;;
56039;SDS011;43937;41.366;2.072;2024-03-02T02:31:38;5.75;;;2.60;;
56039;SDS011;43937;41.366;2.072;2024-03-02T02:34:06;6.65;;;2.65;;
56039;SDS011;43937;41.366;2.072;2024-03-02T02:36:32;7.10;;;2.90;;
56039;SDS011;43937;41.366;2.072;2024-03-02T02:39:02;4.53;;;2.45;;
56039;SDS011;43937;41.366;2.072;2024-03-02T02:41:29;5.72;;;2.60;;
56039;SDS011;43937;41.366;2.072;2024-03-02T02:43:55;7.63;;;2.40;;
56039;SDS011;43937;41.366;2.072;2024-03-02T02:46:21;7.07;;;2.45;;
56039;SDS011;43937;41.366;2.072;2024-03-02T02:48:46;6.20;;;2.40;;
56039;SDS011;43937;41.366;2.072;2024-03-02T02:51:12;6.93;;;2.38;;
56039;SDS011;43937;41.366;2.072;2024-03-02T02:53:37;5.38;;;2.20;;
56039;SDS011;43937;41.366;2.072;2024-03-02T02:56:05;4.57;;;1.97;;
56039;SDS011;43937;41.366;2.072;2024-03-02T02:58:31;4.95;;;2.20;;
56039;SDS011;43937;41.366;2.072;2024-03-02T03:00:57;5.38;;;2.03;;
56039;SDS011;43937;41.366;2.072;2024-03-02T03:03:22;5.60;;;2.00;;
56039;SDS011;43937;41.366;2.072;2024-03-02T03:05:48;6.37;;;1.80;;
56039;SDS011;43937;41.366;2.072;2024-03-02T03:08:13;5.82;;;1.90;;
56039;SDS011;43937;41.366;2.072;2024-03-02T03:10:41;4.50;;;1.80;;
56039;SDS011;43937;41.366;2.072;2024-03-02T03:13:06;4.40;;;1.77;;
56039;SDS011;43937;41.366;2.072;2024-03-02T03:15:34;4.40;;;2.10;;
56039;SDS011;43937;41.366;2.072;2024-03-02T03:18:01;5.23;;;1.90;;
56039;SDS011;43937;41.366;2.072;2024-03-02T03:20:28;4.70;;;2.10;;
56039;SDS011;43937;41.366;2.072;2024-03-02T03:22:54;6.03;;;2.30;;
56039;SDS011;43937;41.366;2.072;2024-03-02T03:25:19;7.50;;;2.40;;
56039;SDS011;43937;41.366;2.072;2024-03-02T03:27:45;8.48;;;2.80;;
56039;SDS011;43937;41.366;2.072;2024-03-02T03:30:11;5.75;;;2.38;;
56039;SDS011;43937;41.366;2.072;2024-03-02T03:32:36;5.03;;;2.55;;
56039;SDS011;43937;41.366;2.072;2024-03-02T03:35:02;4.97;;;2.78;;
56039;SDS011;43937;41.366;2.072;2024-03-02T03:37:29;4.43;;;2.83;;
56039;SDS011;43937;41.366;2.072;2024-03-02T03:39:58;7.43;;;3.20;;
56039;SDS011;43937;41.366;2.072;2024-03-02T03:42:24;8.25;;;3.58;;
56039;SDS011;43937;41.366;2.072;2024-03-02T03:44:49;7.90;;;3.40;;
56039;SDS011;43937;41.366;2.072;2024-03-02T03:47:15;7.47;;;3.00;;
56039;SDS011;43937;41.366;2.072;2024-03-02T03:49:40;8.83;;;3.10;;
56039;SDS011;43937;41.366;2.072;2024-03-02T03:52:06;7.23;;;3.37;;
56039;SDS011;43937;41.366;2.072;2024-03-02T03:54:31;7.45;;;3.30;;
56039;SDS011;43937;41.366;2.072;2024-03-02T03:56:57;7.40;;;3.23;;
56039;SDS011;43937;41.366;2.072;2024-03-02T03:59:22;5.80;;;3.20;;
56039;SDS011;43937;41.366;2.072;2024-03-02T04:01:48;7.63;;;3.40;;
56039;SDS011;43937;41.366;2.072;2024-03-02T04:04:14;9.37;;;3.73;;
56039;SDS011;43937;41.366;2.072;2024-03-02T04:06:39;10.18;;;6.10;;
56039;SDS011;43937;41.366;2.072;2024-03-02T04:09:05;8.75;;;4.35;;
56039;SDS011;43937;41.366;2.072;2024-03-02T04:11:31;8.13;;;4.23;;
56039;SDS011;43937;41.366;2.072;2024-03-02T04:13:56;9.03;;;4.17;;
56039;SDS011;43937;41.366;2.072;2024-03-02T04:16:21;10.30;;;4.35;;
56039;SDS011;43937;41.366;2.072;2024-03-02T04:18:47;8.93;;;4.05;;
56039;SDS011;43937;41.366;2.072;2024-03-02T04:21:13;6.20;;;4.00;;
56039;SDS011;43937;41.366;2.072;2024-03-02T04:23:38;8.10;;;3.77;;
56039;SDS011;43937;41.366;2.072;2024-03-02T04:26:04;7.13;;;3.70;;
56039;SDS011;43937;41.366;2.072;2024-03-02T04:28:29;7.57;;;4.10;;
56039;SDS011;43937;41.366;2.072;2024-03-02T04:30:55;7.57;;;3.40;;
56039;SDS011;43937;41.366;2.072;2024-03-02T04:33:20;9.43;;;4.10;;
56039;SDS011;43937;41.366;2.072;2024-03-02T04:35:46;8.18;;;3.88;;
56039;SDS011;43937;41.366;2.072;2024-03-02T04:38:11;9.20;;;4.10;;
56039;SDS011;43937;41.366;2.072;2024-03-02T04:40:37;10.97;;;4.90;;
56039;SDS011;43937;41.366;2.072;2024-03-02T04:43:02;9.03;;;4.17;;
56039;SDS011;43937;41.366;2.072;2024-03-02T04:45:28;9.70;;;4.63;;
56039;SDS011;43937;41.366;2.072;2024-03-02T04:47:54;8.95;;;4.18;;
56039;SDS011;43937;41.366;2.072;2024-03-02T04:50:19;6.88;;;3.70;;
56039;SDS011;43937;41.366;2.072;2024-03-02T04:52:45;8.50;;;4.07;;
56039;SDS011;43937;41.366;2.072;2024-03-02T04:55:10;8.37;;;4.10;;
56039;SDS011;43937;41.366;2.072;2024-03-02T04:57:54;8.65;;;4.47;;
56039;SDS011;43937;41.366;2.072;2024-03-02T05:00:21;9.82;;;4.45;;
56039;SDS011;43937;41.366;2.072;2024-03-02T05:02:46;8.07;;;4.40;;
56039;SDS011;43937;41.366;2.072;2024-03-02T05:05:12;10.57;;;5.40;;
56039;SDS011;43937;41.366;2.072;2024-03-02T05:07:37;9.60;;;5.13;;
56039;SDS011;43937;41.366;2.072;2024-03-02T05:10:03;12.52;;;5.80;;
56039;SDS011;43937;41.366;2.072;2024-03-02T05:12:28;12.50;;;5.72;;
56039;SDS011;43937;41.366;2.072;2024-03-02T05:15:09;11.95;;;5.75;;
56039;SDS011;43937;41.366;2.072;2024-03-02T05:17:36;9.57;;;5.10;;
56039;SDS011;43937;41.366;2.072;2024-03-02T05:20:03;11.50;;;5.57;;
56039;SDS011;43937;41.366;2.072;2024-03-02T05:22:33;11.07;;;4.97;;
56039;SDS011;43937;41.366;2.072;2024-03-02T05:24:59;9.60;;;4.40;;
56039;SDS011;43937;41.366;2.072;2024-03-02T05:27:25;11.60;;;4.55;;
56039;SDS011;43937;41.366;2.072;2024-03-02T05:29:51;11.45;;;4.38;;
56039;SDS011;43937;41.366;2.072;2024-03-02T05:32:16;9.70;;;4.53;;
56039;SDS011;43937;41.366;2.072;2024-03-02T05:34:42;10.27;;;4.17;;
56039;SDS011;43937;41.366;2.072;2024-03-02T05:37:07;7.20;;;3.80;;
56039;SDS011;43937;41.366;2.072;2024-03-02T05:39:33;6.80;;;3.75;;
56039;SDS011;43937;41.366;2.072;2024-03-02T05:41:59;10.70;;;4.33;;
56039;SDS011;43937;41.366;2.072;2024-03-02T05:44:24;10.70;;;4.80;;
56039;SDS011;43937;41.366;2.072;2024-03-02T05:46:49;11.10;;;4.78;;
56039;SDS011;43937;41.366;2.072;2024-03-02T05:49:15;8.10;;;4.13;;
56039;SDS011;43937;41.366;2.072;2024-03-02T05:51:41;10.77;;;4.77;;
56039;SDS011;43937;41.366;2.072;2024-03-02T05:54:06;10.57;;;4.70;;
56039;SDS011;43937;41.366;2.072;2024-03-02T05:56:32;11.67;;;4.63;;
56039;SDS011;43937;41.366;2.072;2024-03-02T05:58:57;11.10;;;5.05;;
56039;SDS011;43937;41.366;2.072;2024-03-02T06:01:37;9.48;;;4.75;;
56039;SDS011;43937;41.366;2.072;2024-03-02T06:04:03;11.02;;;5.13;;
56039;SDS011;43937;41.366;2.072;2024-03-02T06:06:29;12.15;;;5.20;;
56039;SDS011;43937;41.366;2.072;2024-03-02T06:08:54;13.93;;;5.60;;
56039;SDS011;43937;41.366;2.072;2024-03-02T06:11:20;13.47;;;6.13;;
56039;SDS011;43937;41.366;2.072;2024-03-02T06:13:45;13.60;;;6.00;;
56039;SDS011;43937;41.366;2.072;2024-03-02T06:16:12;14.33;;;5.90;;
56039;SDS011;43937;41.366;2.072;2024-03-02T06:18:37;13.67;;;5.93;;
56039;SDS011;43937;41.366;2.072;2024-03-02T06:21:02;12.70;;;6.00;;
56039;SDS011;43937;41.366;2.072;2024-03-02T06:23:28;11.85;;;5.70;;
56039;SDS011;43937;41.366;2.072;2024-03-02T06:25:54;13.75;;;5.95;;
56039;SDS011;43937;41.366;2.072;2024-03-02T06:28:19;11.30;;;5.80;;
56039;SDS011;43937;41.366;2.072;2024-03-02T06:30:45;13.57;;;6.30;;
56039;SDS011;43937;41.366;2.072;2024-03-02T06:33:11;12.35;;;6.60;;
56039;SDS011;43937;41.366;2.072;2024-03-02T06:35:36;12.80;;;6.43;;
56039;SDS011;43937;41.366;2.072;2024-03-02T06:38:02;13.75;;;6.40;;
56039;SDS011;43937;41.366;2.072;2024-03-02T06:40:27;12.23;;;6.25;;
56039;SDS011;43937;41.366;2.072;2024-03-02T06:42:53;14.13;;;7.20;;
56039;SDS011;43937;41.366;2.072;2024-03-02T06:45:18;14.20;;;6.70;;
56039;SDS011;43937;41.366;2.072;2024-03-02T06:47:44;18.27;;;6.90;;
56039;SDS011;43937;41.366;2.072;2024-03-02T06:50:10;14.05;;;7.10;;
56039;SDS011;43937;41.366;2.072;2024-03-02T06:52:35;14.68;;;6.57;;
56039;SDS011;43937;41.366;2.072;2024-03-02T06:55:01;15.37;;;7.10;;
56039;SDS011;43937;41.366;2.072;2024-03-02T06:57:27;18.17;;;7.78;;
56039;SDS011;43937;41.366;2.072;2024-03-02T06:59:52;15.30;;;7.00;;
56039;SDS011;43937;41.366;2.072;2024-03-02T07:02:20;15.90;;;7.32;;
56039;SDS011;43937;41.366;2.072;2024-03-02T07:04:46;19.92;;;7.20;;
56039;SDS011;43937;41.366;2.072;2024-03-02T07:07:12;18.20;;;7.50;;
56039;SDS011;43937;41.366;2.072;2024-03-02T07:09:37;16.17;;;7.00;;
56039;SDS011;43937;41.366;2.072;2024-03-02T07:12:03;18.10;;;7.10;;
56039;SDS011;43937;41.366;2.072;2024-03-02T07:14:28;17.70;;;6.40;;
56039;SDS011;43937;41.366;2.072;2024-03-02T07:17:12;16.73;;;6.75;;
56039;SDS011;43937;41.366;2.072;2024-03-02T07:19:38;16.50;;;7.30;;
56039;SDS011;43937;41.366;2.072;2024-03-02T07:22:07;17.38;;;6.68;;
56039;SDS011;43937;41.366;2.072;2024-03-02T07:24:42;14.85;;;6.43;;
56039;SDS011;43937;41.366;2.072;2024-03-02T07:27:08;14.95;;;6.32;;
56039;SDS011;43937;41.366;2.072;2024-03-02T07:29:35;15.97;;;5.83;;
56039;SDS011;43937;41.366;2.072;2024-03-02T07:32:01;20.83;;;8.98;;
56039;SDS011;43937;41.366;2.072;2024-03-02T07:34:26;16.30;;;6.00;;
56039;SDS011;43937;41.366;2.072;2024-03-02T07:36:52;13.90;;;6.23;;
56039;SDS011;43937;41.366;2.072;2024-03-02T07:39:21;19.02;;;7.47;;
56039;SDS011;43937;41.366;2.072;2024-03-02T07:41:46;16.55;;;6.75;;
56039;SDS011;43937;41.366;2.072;2024-03-02T07:44:12;13.48;;;6.30;;
56039;SDS011;43937;41.366;2.072;2024-03-02T07:46:44;14.43;;;6.10;;
56039;SDS011;43937;41.366;2.072;2024-03-02T07:49:16;14.50;;;6.10;;
56039;SDS011;43937;41.366;2.072;2024-03-02T07:51:42;16.43;;;6.37;;
56039;SDS011;43937;41.366;2.072;2024-03-02T07:54:08;11.23;;;5.90;;
56039;SDS011;43937;41.366;2.072;2024-03-02T07:56:34;14.90;;;6.10;;
56039;SDS011;43937;41.366;2.072;2024-03-02T07:59:00;15.87;;;5.80;;
56039;SDS011;43937;41.366;2.072;2024-03-02T08:01:29;16.38;;;5.28;;
56039;SDS011;43937;41.366;2.072;2024-03-02T08:03:59;11.45;;;5.60;;
56039;SDS011;43937;41.366;2.072;2024-03-02T08:06:26;15.10;;;4.85;;
56039;SDS011;43937;41.366;2.072;2024-03-02T08:08:55;16.73;;;7.40;;
56039;SDS011;43937;41.366;2.072;2024-03-02T08:11:22;20.23;;;6.10;;
56039;SDS011;43937;41.366;2.072;2024-03-02T08:13:47;12.73;;;5.93;;
56039;SDS011;43937;41.366;2.072;2024-03-02T08:16:16;10.20;;;4.70;;
56039;SDS011;43937;41.366;2.072;2024-03-02T08:18:46;11.60;;;4.72;;
56039;SDS011;43937;41.366;2.072;2024-03-02T08:21:12;10.35;;;4.57;;
56039;SDS011;43937;41.366;2.072;2024-03-02T08:23:38;22.03;;;8.67;;
56039;SDS011;43937;41.366;2.072;2024-03-02T08:26:06;16.88;;;6.32;;
56039;SDS011;43937;41.366;2.072;2024-03-02T08:28:31;14.05;;;6.45;;
56039;SDS011;43937;41.366;2.072;2024-03-02T08:30:58;12.32;;;5.40;;
56039;SDS011;43937;41.366;2.072;2024-03-02T08:33:26;12.55;;;4.65;;
56039;SDS011;43937;41.366;2.072;2024-03-02T08:35:52;12.93;;;4.70;;
56039;SDS011;43937;41.366;2.072;2024-03-02T08:38:17;14.57;;;6.53;;
56039;SDS011;43937;41.366;2.072;2024-03-02T08:40:43;10.40;;;4.40;;
56039;SDS011;43937;41.366;2.072;2024-03-02T08:43:09;12.13;;;4.68;;
56039;SDS011;43937;41.366;2.072;2024-03-02T08:45:34;10.57;;;4.30;;
56039;SDS011;43937;41.366;2.072;2024-03-02T08:48:00;12.82;;;4.85;;
56039;SDS011;43937;41.366;2.072;2024-03-02T08:50:26;11.03;;;4.93;;
56039;SDS011;43937;41.366;2.072;2024-03-02T08:52:51;10.77;;;4.85;;
56039;SDS011;43937;41.366;2.072;2024-03-02T08:55:17;11.23;;;5.00;;
56039;SDS011;43937;41.366;2.072;2024-03-02T08:57:42;13.60;;;5.53;;
56039;SDS011;43937;41.366;2.072;2024-03-02T09:00:08;13.20;;;5.60;;
56039;SDS011;43937;41.366;2.072;2024-03-02T09:02:34;10.10;;;5.13;;
56039;SDS011;43937;41.366;2.072;2024-03-02T09:05:00;11.50;;;4.82;;
56039;SDS011;43937;41.366;2.072;2024-03-02T09:07:26;12.50;;;5.30;;
56039;SDS011;43937;41.366;2.072;2024-03-02T09:09:51;9.73;;;4.78;;
56039;SDS011;43937;41.366;2.072;2024-03-02T09:12:17;12.13;;;6.90;;
56039;SDS011;43937;41.366;2.072;2024-03-02T09:14:43;10.68;;;5.30;;
56039;SDS011;43937;41.366;2.072;2024-03-02T09:17:09;10.83;;;5.07;;
56039;SDS011;43937;41.366;2.072;2024-03-02T09:19:36;7.03;;;2.92;;
56039;SDS011;43937;41.366;2.072;2024-03-02T09:22:02;9.40;;;4.05;;
56039;SDS011;43937;41.366;2.072;2024-03-02T09:24:30;7.35;;;3.05;;
56039;SDS011;43937;41.366;2.072;2024-03-02T09:26:56;8.73;;;2.70;;
56039;SDS011;43937;41.366;2.072;2024-03-02T09:29:21;6.80;;;2.03;;
56039;SDS011;43937;41.366;2.072;2024-03-02T09:31:47;7.57;;;2.30;;
56039;SDS011;43937;41.366;2.072;2024-03-02T09:34:14;7.82;;;2.42;;
56039;SDS011;43937;41.366;2.072;2024-03-02T09:36:40;6.55;;;2.03;;
56039;SDS011;43937;41.366;2.072;2024-03-02T09:39:07;9.57;;;4.50;;
56039;SDS011;43937;41.366;2.072;2024-03-02T09:41:34;6.13;;;1.90;;
56039;SDS011;43937;41.366;2.072;2024-03-02T09:44:01;7.22;;;2.40;;
56039;SDS011;43937;41.366;2.072;2024-03-02T09:46:27;7.75;;;2.20;;
56039;SDS011;43937;41.366;2.072;2024-03-02T09:48:53;12.20;;;2.40;;
56039;SDS011;43937;41.366;2.072;2024-03-02T09:51:19;6.73;;;1.80;;
56039;SDS011;43937;41.366;2.072;2024-03-02T09:53:45;7.00;;;1.97;;
56039;SDS011;43937;41.366;2.072;2024-03-02T09:56:12;6.95;;;2.35;;
56039;SDS011;43937;41.366;2.072;2024-03-02T09:58:38;3.95;;;1.70;;
56039;SDS011;43937;41.366;2.072;2024-03-02T10:01:06;5.38;;;1.73;;
56039;SDS011;43937;41.366;2.072;2024-03-02T10:03:32;5.80;;;1.80;;
56039;SDS011;43937;41.366;2.072;2024-03-02T10:08:50;6.85;;;2.10;;
56039;SDS011;43937;41.366;2.072;2024-03-02T10:11:26;6.15;;;2.30;;
56039;SDS011;43937;41.366;2.072;2024-03-02T10:14:03;6.25;;;2.00;;
56039;SDS011;43937;41.366;2.072;2024-03-02T10:16:35;9.25;;;1.95;;
56039;SDS011;43937;41.366;2.072;2024-03-02T10:21:46;6.77;;;1.90;;
56039;SDS011;43937;41.366;2.072;2024-03-02T10:24:12;5.80;;;2.20;;
56039;SDS011;43937;41.366;2.072;2024-03-02T10:26:38;6.43;;;2.07;;
56039;SDS011;43937;41.366;2.072;2024-03-02T10:29:04;9.50;;;2.50;;
56039;SDS011;43937;41.366;2.072;2024-03-02T10:31:29;8.88;;;2.22;;
56039;SDS011;43937;41.366;2.072;2024-03-02T10:33:55;8.82;;;2.70;;
56039;SDS011;43937;41.366;2.072;2024-03-02T10:36:22;6.80;;;2.50;;
56039;SDS011;43937;41.366;2.072;2024-03-02T10:38:48;7.10;;;2.28;;
56039;SDS011;43937;41.366;2.072;2024-03-02T10:41:18;9.35;;;2.33;;
56039;SDS011;43937;41.366;2.072;2024-03-02T10:43:45;9.55;;;2.47;;
56039;SDS011;43937;41.366;2.072;2024-03-02T10:46:11;8.30;;;2.35;;
56039;SDS011;43937;41.366;2.072;2024-03-02T10:48:39;14.60;;;4.40;;
56039;SDS011;43937;41.366;2.072;2024-03-02T10:51:06;10.70;;;3.30;;
56039;SDS011;43937;41.366;2.072;2024-03-02T10:53:32;14.93;;;3.67;;
56039;SDS011;43937;41.366;2.072;2024-03-02T10:55:57;11.30;;;3.00;;
56039;SDS011;43937;41.366;2.072;2024-03-02T10:58:31;10.20;;;3.10;;
56039;SDS011;43937;41.366;2.072;2024-03-02T11:01:03;11.75;;;3.08;;
56039;SDS011;43937;41.366;2.072;2024-03-02T11:03:31;12.60;;;3.40;;
56039;SDS011;43937;41.366;2.072;2024-03-02T11:06:00;11.80;;;3.75;;
56039;SDS011;43937;41.366;2.072;2024-03-02T11:08:31;11.18;;;3.50;;
56039;SDS011;43937;41.366;2.072;2024-03-02T11:11:02;13.07;;;3.30;;
56039;SDS011;43937;41.366;2.072;2024-03-02T11:13:33;12.23;;;3.57;;
56039;SDS011;43937;41.366;2.072;2024-03-02T11:16:03;10.63;;;3.67;;
56039;SDS011;43937;41.366;2.072;2024-03-02T11:18:39;10.80;;;3.10;;
56039;SDS011;43937;41.366;2.072;2024-03-02T11:21:06;10.10;;;3.20;;
56039;SDS011;43937;41.366;2.072;2024-03-02T11:23:32;11.93;;;3.42;;
56039;SDS011;43937;41.366;2.072;2024-03-02T11:28:44;8.87;;;3.00;;
56039;SDS011;43937;41.366;2.072;2024-03-02T11:31:09;13.60;;;3.20;;
56039;SDS011;43937;41.366;2.072;2024-03-02T11:33:35;12.52;;;3.88;;
56039;SDS011;43937;41.366;2.072;2024-03-02T11:36:00;15.00;;;2.93;;
56039;SDS011;43937;41.366;2.072;2024-03-02T11:38:35;10.02;;;3.13;;
56039;SDS011;43937;41.366;2.072;2024-03-02T11:41:07;10.70;;;3.00;;
56039;SDS011;43937;41.366;2.072;2024-03-02T11:43:39;12.77;;;2.92;;
56039;SDS011;43937;41.366;2.072;2024-03-02T11:46:07;10.40;;;3.40;;
56039;SDS011;43937;41.366;2.072;2024-03-02T11:48:32;10.52;;;2.90;;
56039;SDS011;43937;41.366;2.072;2024-03-02T11:51:00;12.38;;;3.58;;
56039;SDS011;43937;41.366;2.072;2024-03-02T11:53:26;11.68;;;3.40;;
56039;SDS011;43937;41.366;2.072;2024-03-02T11:55:57;10.60;;;3.03;;
56039;SDS011;43937;41.366;2.072;2024-03-02T11:58:24;10.63;;;2.90;;
56039;SDS011;43937;41.366;2.072;2024-03-02T12:00:51;17.02;;;3.58;;
56039;SDS011;43937;41.366;2.072;2024-03-02T12:03:24;10.27;;;4.05;;
56039;SDS011;43937;41.366;2.072;2024-03-02T12:05:51;10.30;;;3.40;;
56039;SDS011;43937;41.366;2.072;2024-03-02T12:08:19;8.57;;;3.87;;
56039;SDS011;43937;41.366;2.072;2024-03-02T12:10:58;9.93;;;3.50;;
56039;SDS011;43937;41.366;2.072;2024-03-02T12:13:25;10.43;;;3.60;;
56039;SDS011;43937;41.366;2.072;2024-03-02T12:15:52;12.97;;;3.57;;
56039;SDS011;43937;41.366;2.072;2024-03-02T12:18:20;13.95;;;3.72;;
56039;SDS011;43937;41.366;2.072;2024-03-02T12:20:45;7.70;;;3.10;;
56039;SDS011;43937;41.366;2.072;2024-03-02T12:23:13;11.38;;;2.80;;
56039;SDS011;43937;41.366;2.072;2024-03-02T12:25:39;10.55;;;2.58;;
56039;SDS011;43937;41.366;2.072;2024-03-02T12:28:05;11.80;;;3.03;;
56039;SDS011;43937;41.366;2.072;2024-03-02T12:30:35;12.43;;;2.83;;
56039;SDS011;43937;41.366;2.072;2024-03-02T12:33:01;13.52;;;2.80;;
56039;SDS011;43937;41.366;2.072;2024-03-02T12:35:27;8.68;;;3.00;;
56039;SDS011;43937;41.366;2.072;2024-03-02T12:37:53;10.15;;;3.00;;
56039;SDS011;43937;41.366;2.072;2024-03-02T12:40:21;11.55;;;3.38;;
56039;SDS011;43937;41.366;2.072;2024-03-02T12:42:47;11.93;;;3.58;;
56039;SDS011;43937;41.366;2.072;2024-03-02T12:45:14;11.07;;;3.80;;
56039;SDS011;43937;41.366;2.072;2024-03-02T12:47:41;13.70;;;3.78;;
56039;SDS011;43937;41.366;2.072;2024-03-02T12:50:07;12.85;;;4.10;;
56039;SDS011;43937;41.366;2.072;2024-03-02T12:52:34;21.75;;;3.95;;
56039;SDS011;43937;41.366;2.072;2024-03-02T12:55:01;13.02;;;3.90;;
56039;SDS011;43937;41.366;2.072;2024-03-02T12:57:29;13.77;;;4.00;;
56039;SDS011;43937;41.366;2.072;2024-03-02T13:00:05;15.05;;;4.10;;
56039;SDS011;43937;41.366;2.072;2024-03-02T13:02:35;13.50;;;3.80;;
56039;SDS011;43937;41.366;2.072;2024-03-02T13:05:01;19.33;;;4.90;;
56039;SDS011;43937;41.366;2.072;2024-03-02T13:07:28;13.83;;;4.60;;
56039;SDS011;43937;41.366;2.072;2024-03-02T13:09:55;17.50;;;4.03;;
56039;SDS011;43937;41.366;2.072;2024-03-02T13:12:21;15.15;;;3.72;;
56039;SDS011;43937;41.366;2.072;2024-03-02T13:14:48;15.15;;;4.55;;
56039;SDS011;43937;41.366;2.072;2024-03-02T13:17:17;11.52;;;3.65;;
56039;SDS011;43937;41.366;2.072;2024-03-02T13:19:53;12.57;;;3.77;;
56039;SDS011;43937;41.366;2.072;2024-03-02T13:22:23;15.55;;;4.10;;
56039;SDS011;43937;41.366;2.072;2024-03-02T13:24:49;12.73;;;3.72;;
56039;SDS011;43937;41.366;2.072;2024-03-02T13:27:16;11.38;;;3.58;;
56039;SDS011;43937;41.366;2.072;2024-03-02T13:29:44;11.70;;;4.05;;
56039;SDS011;43937;41.366;2.072;2024-03-02T13:32:13;11.00;;;3.58;;
56039;SDS011;43937;41.366;2.072;2024-03-02T13:34:48;13.40;;;4.00;;
56039;SDS011;43937;41.366;2.072;2024-03-02T13:37:18;14.60;;;5.38;;
56039;SDS011;43937;41.366;2.072;2024-03-02T13:39:43;12.15;;;4.32;;
56039;SDS011;43937;41.366;2.072;2024-03-02T13:42:12;11.00;;;3.97;;
56039;SDS011;43937;41.366;2.072;2024-03-02T13:44:40;11.07;;;3.83;;
56039;SDS011;43937;41.366;2.072;2024-03-02T13:47:06;10.82;;;3.67;;
56039;SDS011;43937;41.366;2.072;2024-03-02T13:49:32;13.05;;;3.47;;
56039;SDS011;43937;41.366;2.072;2024-03-02T13:52:05;12.85;;;4.50;;
56039;SDS011;43937;41.366;2.072;2024-03-02T13:54:45;13.10;;;4.25;;
56039;SDS011;43937;41.366;2.072;2024-03-02T13:57:13;12.65;;;4.50;;
56039;SDS011;43937;41.366;2.072;2024-03-02T13:59:40;11.98;;;4.50;;
56039;SDS011;43937;41.366;2.072;2024-03-02T14:02:06;12.02;;;3.72;;
56039;SDS011;43937;41.366;2.072;2024-03-02T14:04:32;13.25;;;4.05;;
56039;SDS011;43937;41.366;2.072;2024-03-02T14:06:58;15.63;;;4.20;;
56039;SDS011;43937;41.366;2.072;2024-03-02T14:09:24;16.88;;;4.25;;
56039;SDS011;43937;41.366;2.072;2024-03-02T14:11:50;14.50;;;3.90;;
56039;SDS011;43937;41.366;2.072;2024-03-02T14:14:19;17.73;;;4.72;;
56039;SDS011;43937;41.366;2.072;2024-03-02T14:16:44;18.63;;;4.20;;
56039;SDS011;43937;41.366;2.072;2024-03-02T14:19:10;14.73;;;5.18;;
56039;SDS011;43937;41.366;2.072;2024-03-02T14:21:37;13.88;;;4.30;;
56039;SDS011;43937;41.366;2.072;2024-03-02T14:24:03;15.70;;;4.17;;
56039;SDS011;43937;41.366;2.072;2024-03-02T14:26:29;13.40;;;3.97;;
56039;SDS011;43937;41.366;2.072;2024-03-02T14:28:58;16.05;;;4.80;;
56039;SDS011;43937;41.366;2.072;2024-03-02T14:31:25;15.98;;;5.50;;
56039;SDS011;43937;41.366;2.072;2024-03-02T14:33:51;14.40;;;5.70;;
56039;SDS011;43937;41.366;2.072;2024-03-02T14:36:17;13.82;;;5.50;;
56039;SDS011;43937;41.366;2.072;2024-03-02T14:38:42;12.40;;;4.00;;
56039;SDS011;43937;41.366;2.072;2024-03-02T14:41:11;12.77;;;3.87;;
56039;SDS011;43937;41.366;2.072;2024-03-02T14:43:39;10.60;;;3.53;;
56039;SDS011;43937;41.366;2.072;2024-03-02T14:46:04;8.15;;;3.15;;
56039;SDS011;43937;41.366;2.072;2024-03-02T14:48:33;7.93;;;2.47;;
56039;SDS011;43937;41.366;2.072;2024-03-02T14:50:59;6.72;;;2.42;;
56039;SDS011;43937;41.366;2.072;2024-03-02T14:53:25;6.70;;;2.17;;
56039;SDS011;43937;41.366;2.072;2024-03-02T14:55:50;4.87;;;2.10;;